Airfield :
LOGIN :

Register | Disclaimer

   EN    FR    IT 

 










Legend :    VFR   Marginal VFR   IFR   Intensive IFR   Very Intensive IFR
Visi :
Ceiling :
>= 8 km
>= 3000ft
5 to 8 km
1000 to 3000 ft
1500m to 5 km
500 to 1000 ft
800 to 1500m
200 to 500 ft
< 800m
< 200 ft
Symbols :   Thunderstorms  Fog  Heavy snow  Heavy precipitations  Wind > 20 kt
SIGMETs :     Misc.  Thunderstorms  Icing  Turbulence  Mountain Waves  Volcanic Ashes







- Airport Elevation : 885 ft
- IATA code : BAS
- Download approach charts


LFSB - Bale-Mulhouse

CURRENT METAR :
  • 230900Z 16004KT 110V200 CAVOK 07/03 Q1012 NOSIG

EXPIRED METARs :
  • 230830Z VRB03KT CAVOK 05/03 Q1012 NOSIG
  • 230800Z 20005KT CAVOK 05/02 Q1012 NOSIG
  • 230730Z 19005KT CAVOK 03/01 Q1011 NOSIG
  • 230700Z 20005KT CAVOK 02/01 Q1011 NOSIG
  • 230630Z 18005KT CAVOK 02/01 Q1011 NOSIG

TAF TAF LFSB
Valid from the 23 at 06:00 until the 24 at 06:00 UTC


230500Z 2306/2406 19005KT CAVOK
Met : +33 3 89 90 31 11
No reported NOTAMs for that airfield.
2 SIGMETs reported for the Reims FIR (LFEE) :
 
SIGMET 1  cancelation
LFEE SIGMET 3 VALID 230740/230900 LFPW
LFEE REIMS FIR/UIR CNL SIGMET 1 230500/230900=
Severe turbulence
LFEE SIGMET 2 VALID 230730/231100 LFPW
LFEE REIMS FIR/UIR SEV TURB FCST WI N4630 E00545 - N4630 E00445 - N4730 E00415 - N4830 E00530 - N4845 E00515 - N4930 E00600 - N4900 E00800 - N4800 E00715 - N4730 E00615 SFC/FL080 STNR NC=



MET'MAP, your aeronautical weather chart ! - Copyright ORBIFLY December 2007 - Disclaimer

ORBIFLY MET'MAP TEAM :

Programming & Development : Alexandra Zaïnal
Concept & Development : Baudouin d'Aumeries
Co-Development & Prog : Marc-Olivier Méhu
Technical & hardware support : Manuel Goepfert

Contact : metmap@orbifly.com




SOURCES & CREDITS :

   NOAA